sensor_id;sensor_type;location;lat;lon;timestamp;temperature;humidity
30174;DHT22;16985;50.814;8.530;2023-08-08T00:01:55;12.80;99.90
30174;DHT22;16985;50.814;8.530;2023-08-08T00:04:21;12.80;99.90
30174;DHT22;16985;50.814;8.530;2023-08-08T00:06:46;12.80;99.90
30174;DHT22;16985;50.814;8.530;2023-08-08T00:09:12;12.80;99.90
30174;DHT22;16985;50.814;8.530;2023-08-08T00:11:39;12.80;99.90
30174;DHT22;16985;50.814;8.530;2023-08-08T00:14:04;12.80;99.90
30174;DHT22;16985;50.814;8.530;2023-08-08T00:16:30;12.80;99.90
30174;DHT22;16985;50.814;8.530;2023-08-08T00:18:56;12.80;99.90
30174;DHT22;16985;50.814;8.530;2023-08-08T00:21:22;12.90;99.90
30174;DHT22;16985;50.814;8.530;2023-08-08T00:23:48;12.90;99.90
30174;DHT22;16985;50.814;8.530;2023-08-08T00:26:14;12.90;99.90
30174;DHT22;16985;50.814;8.530;2023-08-08T00:28:39;12.90;99.90
30174;DHT22;16985;50.814;8.530;2023-08-08T00:31:07;12.90;99.90
30174;DHT22;16985;50.814;8.530;2023-08-08T00:33:32;12.80;99.90
30174;DHT22;16985;50.814;8.530;2023-08-08T00:35:58;12.90;99.90
30174;DHT22;16985;50.814;8.530;2023-08-08T00:38:25;12.90;99.90
30174;DHT22;16985;50.814;8.530;2023-08-08T00:40:51;12.90;99.90
30174;DHT22;16985;50.814;8.530;2023-08-08T00:43:17;12.90;99.90
30174;DHT22;16985;50.814;8.530;2023-08-08T00:45:44;12.80;99.90
30174;DHT22;16985;50.814;8.530;2023-08-08T00:48:10;12.80;99.90
30174;DHT22;16985;50.814;8.530;2023-08-08T00:50:37;12.80;99.90
30174;DHT22;16985;50.814;8.530;2023-08-08T00:53:04;12.80;99.90
30174;DHT22;16985;50.814;8.530;2023-08-08T00:55:30;12.80;99.90
30174;DHT22;16985;50.814;8.530;2023-08-08T00:57:56;12.80;99.90
30174;DHT22;16985;50.814;8.530;2023-08-08T01:00:22;12.80;99.90
30174;DHT22;16985;50.814;8.530;2023-08-08T01:02:48;12.80;99.90
30174;DHT22;16985;50.814;8.530;2023-08-08T01:05:14;12.80;99.90
30174;DHT22;16985;50.814;8.530;2023-08-08T01:07:54;12.80;99.90
30174;DHT22;16985;50.814;8.530;2023-08-08T01:10:37;12.80;99.90
30174;DHT22;16985;50.814;8.530;2023-08-08T01:13:14;12.80;99.90
30174;DHT22;16985;50.814;8.530;2023-08-08T01:15:43;12.80;99.90
30174;DHT22;16985;50.814;8.530;2023-08-08T01:18:11;12.80;99.90
30174;DHT22;16985;50.814;8.530;2023-08-08T01:20:37;12.80;99.90
30174;DHT22;16985;50.814;8.530;2023-08-08T01:23:19;12.80;99.90
30174;DHT22;16985;50.814;8.530;2023-08-08T01:25:50;12.80;99.90
30174;DHT22;16985;50.814;8.530;2023-08-08T01:28:21;12.80;99.90
30174;DHT22;16985;50.814;8.530;2023-08-08T01:30:48;12.80;99.90
30174;DHT22;16985;50.814;8.530;2023-08-08T01:33:14;12.80;99.90
30174;DHT22;16985;50.814;8.530;2023-08-08T01:35:44;12.80;99.90
30174;DHT22;16985;50.814;8.530;2023-08-08T01:38:19;12.70;99.90
30174;DHT22;16985;50.814;8.530;2023-08-08T01:40:46;12.70;99.90
30174;DHT22;16985;50.814;8.530;2023-08-08T01:43:15;12.70;99.90
30174;DHT22;16985;50.814;8.530;2023-08-08T01:45:41;12.60;99.90
30174;DHT22;16985;50.814;8.530;2023-08-08T01:48:08;12.60;99.90
30174;DHT22;16985;50.814;8.530;2023-08-08T01:50:35;12.60;99.90
30174;DHT22;16985;50.814;8.530;2023-08-08T01:53:01;12.70;99.90
30174;DHT22;16985;50.814;8.530;2023-08-08T01:55:27;12.60;99.90
30174;DHT22;16985;50.814;8.530;2023-08-08T01:57:52;12.50;99.90
30174;DHT22;16985;50.814;8.530;2023-08-08T02:00:18;12.70;99.90
30174;DHT22;16985;50.814;8.530;2023-08-08T02:02:44;12.60;99.90
30174;DHT22;16985;50.814;8.530;2023-08-08T02:05:11;12.70;99.90
30174;DHT22;16985;50.814;8.530;2023-08-08T02:07:37;12.60;99.90
30174;DHT22;16985;50.814;8.530;2023-08-08T02:10:03;12.60;99.90
30174;DHT22;16985;50.814;8.530;2023-08-08T02:12:29;12.60;99.90
30174;DHT22;16985;50.814;8.530;2023-08-08T02:14:56;12.60;99.90
30174;DHT22;16985;50.814;8.530;2023-08-08T02:17:24;12.60;99.90
30174;DHT22;16985;50.814;8.530;2023-08-08T02:19:50;12.60;99.90
30174;DHT22;16985;50.814;8.530;2023-08-08T02:22:16;12.60;99.90
30174;DHT22;16985;50.814;8.530;2023-08-08T02:24:43;12.60;99.90
30174;DHT22;16985;50.814;8.530;2023-08-08T02:27:09;12.50;99.90
30174;DHT22;16985;50.814;8.530;2023-08-08T02:29:36;12.50;99.90
30174;DHT22;16985;50.814;8.530;2023-08-08T02:32:02;12.50;99.90
30174;DHT22;16985;50.814;8.530;2023-08-08T02:34:28;12.50;99.90
30174;DHT22;16985;50.814;8.530;2023-08-08T02:36:55;12.50;99.90
30174;DHT22;16985;50.814;8.530;2023-08-08T02:39:21;12.40;99.90
30174;DHT22;16985;50.814;8.530;2023-08-08T02:41:47;12.40;99.90
30174;DHT22;16985;50.814;8.530;2023-08-08T02:44:13;12.40;99.90
30174;DHT22;16985;50.814;8.530;2023-08-08T02:46:39;12.40;99.90
30174;DHT22;16985;50.814;8.530;2023-08-08T02:49:06;12.40;99.90
30174;DHT22;16985;50.814;8.530;2023-08-08T02:51:31;12.40;99.90
30174;DHT22;16985;50.814;8.530;2023-08-08T02:53:57;12.30;99.90
30174;DHT22;16985;50.814;8.530;2023-08-08T02:56:23;12.30;99.90
30174;DHT22;16985;50.814;8.530;2023-08-08T02:58:51;12.30;99.90
30174;DHT22;16985;50.814;8.530;2023-08-08T03:01:17;12.30;99.90
30174;DHT22;16985;50.814;8.530;2023-08-08T03:03:45;12.30;99.90
30174;DHT22;16985;50.814;8.530;2023-08-08T03:06:12;12.30;99.90
30174;DHT22;16985;50.814;8.530;2023-08-08T03:08:39;12.30;99.90
30174;DHT22;16985;50.814;8.530;2023-08-08T03:11:05;12.30;99.90
30174;DHT22;16985;50.814;8.530;2023-08-08T03:13:31;12.40;99.90
30174;DHT22;16985;50.814;8.530;2023-08-08T03:15:58;12.30;99.90
30174;DHT22;16985;50.814;8.530;2023-08-08T03:18:24;12.30;99.90
30174;DHT22;16985;50.814;8.530;2023-08-08T03:20:52;12.30;99.90
30174;DHT22;16985;50.814;8.530;2023-08-08T03:23:19;12.30;99.90
30174;DHT22;16985;50.814;8.530;2023-08-08T03:25:45;12.30;99.90
30174;DHT22;16985;50.814;8.530;2023-08-08T03:28:12;12.30;99.90
30174;DHT22;16985;50.814;8.530;2023-08-08T03:30:38;12.30;99.90
30174;DHT22;16985;50.814;8.530;2023-08-08T03:33:06;12.30;99.90
30174;DHT22;16985;50.814;8.530;2023-08-08T03:35:33;12.30;99.90
30174;DHT22;16985;50.814;8.530;2023-08-08T03:38:00;12.30;99.90
30174;DHT22;16985;50.814;8.530;2023-08-08T03:40:26;12.30;99.90
30174;DHT22;16985;50.814;8.530;2023-08-08T03:42:52;12.30;99.90
30174;DHT22;16985;50.814;8.530;2023-08-08T03:45:17;12.20;99.90
30174;DHT22;16985;50.814;8.530;2023-08-08T03:47:44;12.20;99.90
30174;DHT22;16985;50.814;8.530;2023-08-08T03:50:11;12.20;99.90
30174;DHT22;16985;50.814;8.530;2023-08-08T03:52:37;12.20;99.90
30174;DHT22;16985;50.814;8.530;2023-08-08T03:55:04;12.20;99.90
30174;DHT22;16985;50.814;8.530;2023-08-08T03:57:30;12.10;99.90
30174;DHT22;16985;50.814;8.530;2023-08-08T03:59:56;12.10;99.90
30174;DHT22;16985;50.814;8.530;2023-08-08T04:02:22;12.10;99.90
30174;DHT22;16985;50.814;8.530;2023-08-08T04:04:50;12.10;99.90
30174;DHT22;16985;50.814;8.530;2023-08-08T04:07:16;12.10;99.90
30174;DHT22;16985;50.814;8.530;2023-08-08T04:09:41;12.10;99.90
30174;DHT22;16985;50.814;8.530;2023-08-08T04:12:08;12.10;99.90
30174;DHT22;16985;50.814;8.530;2023-08-08T04:14:34;12.00;99.90
30174;DHT22;16985;50.814;8.530;2023-08-08T04:16:59;12.00;99.90
30174;DHT22;16985;50.814;8.530;2023-08-08T04:19:25;12.00;99.90
30174;DHT22;16985;50.814;8.530;2023-08-08T04:21:51;12.10;99.90
30174;DHT22;16985;50.814;8.530;2023-08-08T04:24:17;12.10;99.90
30174;DHT22;16985;50.814;8.530;2023-08-08T04:26:43;12.00;99.90
30174;DHT22;16985;50.814;8.530;2023-08-08T04:29:08;12.00;99.90
30174;DHT22;16985;50.814;8.530;2023-08-08T04:31:34;12.00;99.90
30174;DHT22;16985;50.814;8.530;2023-08-08T04:34:00;12.00;99.90
30174;DHT22;16985;50.814;8.530;2023-08-08T04:36:27;12.00;99.90
30174;DHT22;16985;50.814;8.530;2023-08-08T04:38:53;12.00;99.90
30174;DHT22;16985;50.814;8.530;2023-08-08T04:41:19;12.10;99.90
30174;DHT22;16985;50.814;8.530;2023-08-08T04:43:45;12.00;99.90
30174;DHT22;16985;50.814;8.530;2023-08-08T04:46:11;12.00;99.90
30174;DHT22;16985;50.814;8.530;2023-08-08T04:48:37;12.00;99.90
30174;DHT22;16985;50.814;8.530;2023-08-08T04:51:08;12.10;99.90
30174;DHT22;16985;50.814;8.530;2023-08-08T04:53:34;12.10;99.90
30174;DHT22;16985;50.814;8.530;2023-08-08T04:56:00;12.10;99.90
30174;DHT22;16985;50.814;8.530;2023-08-08T04:58:26;12.10;99.90
30174;DHT22;16985;50.814;8.530;2023-08-08T05:00:52;12.10;99.90
30174;DHT22;16985;50.814;8.530;2023-08-08T05:03:18;12.10;99.90
30174;DHT22;16985;50.814;8.530;2023-08-08T05:05:44;12.00;99.90
30174;DHT22;16985;50.814;8.530;2023-08-08T05:08:11;12.10;99.90
30174;DHT22;16985;50.814;8.530;2023-08-08T05:10:38;12.10;99.90
30174;DHT22;16985;50.814;8.530;2023-08-08T05:13:04;12.10;99.90
30174;DHT22;16985;50.814;8.530;2023-08-08T05:15:30;12.10;99.90
30174;DHT22;16985;50.814;8.530;2023-08-08T05:17:56;12.00;99.90
30174;DHT22;16985;50.814;8.530;2023-08-08T05:20:22;12.00;99.90
30174;DHT22;16985;50.814;8.530;2023-08-08T05:22:48;12.00;99.90
30174;DHT22;16985;50.814;8.530;2023-08-08T05:25:14;12.10;99.90
30174;DHT22;16985;50.814;8.530;2023-08-08T05:27:40;12.10;99.90
30174;DHT22;16985;50.814;8.530;2023-08-08T05:30:06;12.10;99.90
30174;DHT22;16985;50.814;8.530;2023-08-08T05:32:32;12.10;99.90
30174;DHT22;16985;50.814;8.530;2023-08-08T05:34:58;12.10;99.90
30174;DHT22;16985;50.814;8.530;2023-08-08T05:37:26;12.10;99.90
30174;DHT22;16985;50.814;8.530;2023-08-08T05:39:53;12.10;99.90
30174;DHT22;16985;50.814;8.530;2023-08-08T05:42:19;12.20;99.90
30174;DHT22;16985;50.814;8.530;2023-08-08T05:44:45;12.20;99.90
30174;DHT22;16985;50.814;8.530;2023-08-08T05:47:11;12.20;99.90
30174;DHT22;16985;50.814;8.530;2023-08-08T05:49:38;12.20;99.90
30174;DHT22;16985;50.814;8.530;2023-08-08T05:52:05;12.20;99.90
30174;DHT22;16985;50.814;8.530;2023-08-08T05:54:31;12.30;99.90
30174;DHT22;16985;50.814;8.530;2023-08-08T05:56:57;12.30;99.90
30174;DHT22;16985;50.814;8.530;2023-08-08T05:59:22;12.40;99.90
30174;DHT22;16985;50.814;8.530;2023-08-08T06:01:48;12.40;99.90
30174;DHT22;16985;50.814;8.530;2023-08-08T06:04:14;12.50;99.90
30174;DHT22;16985;50.814;8.530;2023-08-08T06:06:40;12.50;99.90
30174;DHT22;16985;50.814;8.530;2023-08-08T06:09:06;12.50;99.90
30174;DHT22;16985;50.814;8.530;2023-08-08T06:11:34;12.60;99.90
30174;DHT22;16985;50.814;8.530;2023-08-08T06:14:00;12.60;99.90
30174;DHT22;16985;50.814;8.530;2023-08-08T06:16:26;12.60;99.90
30174;DHT22;16985;50.814;8.530;2023-08-08T06:18:52;12.60;99.90
30174;DHT22;16985;50.814;8.530;2023-08-08T06:21:18;12.60;99.90
30174;DHT22;16985;50.814;8.530;2023-08-08T06:23:44;12.70;99.90
30174;DHT22;16985;50.814;8.530;2023-08-08T06:26:10;12.70;99.90
30174;DHT22;16985;50.814;8.530;2023-08-08T06:28:36;12.70;99.90
30174;DHT22;16985;50.814;8.530;2023-08-08T06:31:02;12.80;99.90
30174;DHT22;16985;50.814;8.530;2023-08-08T06:33:28;12.80;99.90
30174;DHT22;16985;50.814;8.530;2023-08-08T06:35:55;12.80;99.90
30174;DHT22;16985;50.814;8.530;2023-08-08T06:38:21;12.90;99.90
30174;DHT22;16985;50.814;8.530;2023-08-08T06:40:47;12.90;99.90
30174;DHT22;16985;50.814;8.530;2023-08-08T06:43:13;13.00;99.90
30174;DHT22;16985;50.814;8.530;2023-08-08T06:45:39;13.00;99.90
30174;DHT22;16985;50.814;8.530;2023-08-08T06:48:05;13.10;99.90
30174;DHT22;16985;50.814;8.530;2023-08-08T06:50:31;13.10;99.90
30174;DHT22;16985;50.814;8.530;2023-08-08T06:52:57;13.20;99.90
30174;DHT22;16985;50.814;8.530;2023-08-08T06:55:22;13.20;99.90
30174;DHT22;16985;50.814;8.530;2023-08-08T06:57:49;13.30;99.90
30174;DHT22;16985;50.814;8.530;2023-08-08T07:00:15;13.40;99.90
30174;DHT22;16985;50.814;8.530;2023-08-08T07:02:41;13.40;99.90
30174;DHT22;16985;50.814;8.530;2023-08-08T07:05:08;13.50;99.90
30174;DHT22;16985;50.814;8.530;2023-08-08T07:07:35;13.60;99.90
30174;DHT22;16985;50.814;8.530;2023-08-08T07:10:01;13.60;99.90
30174;DHT22;16985;50.814;8.530;2023-08-08T07:12:29;13.70;99.90
30174;DHT22;16985;50.814;8.530;2023-08-08T07:14:55;13.70;99.90
30174;DHT22;16985;50.814;8.530;2023-08-08T07:17:20;13.80;99.90
30174;DHT22;16985;50.814;8.530;2023-08-08T07:19:46;13.90;99.90
30174;DHT22;16985;50.814;8.530;2023-08-08T07:22:12;13.90;99.90
30174;DHT22;16985;50.814;8.530;2023-08-08T07:24:38;14.00;99.90
30174;DHT22;16985;50.814;8.530;2023-08-08T07:27:04;14.00;99.90
30174;DHT22;16985;50.814;8.530;2023-08-08T07:29:30;14.10;99.90
30174;DHT22;16985;50.814;8.530;2023-08-08T07:31:57;14.10;99.90
30174;DHT22;16985;50.814;8.530;2023-08-08T07:34:24;14.10;99.90
30174;DHT22;16985;50.814;8.530;2023-08-08T07:36:50;14.20;99.90
30174;DHT22;16985;50.814;8.530;2023-08-08T07:39:16;14.20;99.90
30174;DHT22;16985;50.814;8.530;2023-08-08T07:41:42;14.20;99.90
30174;DHT22;16985;50.814;8.530;2023-08-08T07:44:08;14.20;99.90
30174;DHT22;16985;50.814;8.530;2023-08-08T07:46:34;14.30;99.90
30174;DHT22;16985;50.814;8.530;2023-08-08T07:48:59;14.30;99.90
30174;DHT22;16985;50.814;8.530;2023-08-08T07:51:29;14.30;99.90
30174;DHT22;16985;50.814;8.530;2023-08-08T07:53:55;14.30;99.90
30174;DHT22;16985;50.814;8.530;2023-08-08T07:56:21;14.30;99.90
30174;DHT22;16985;50.814;8.530;2023-08-08T07:58:46;14.50;99.90
30174;DHT22;16985;50.814;8.530;2023-08-08T08:01:12;14.40;99.90
30174;DHT22;16985;50.814;8.530;2023-08-08T08:03:39;14.40;99.90
30174;DHT22;16985;50.814;8.530;2023-08-08T08:06:06;14.50;99.90
30174;DHT22;16985;50.814;8.530;2023-08-08T08:08:32;14.50;99.90
30174;DHT22;16985;50.814;8.530;2023-08-08T08:10:58;14.50;99.90
30174;DHT22;16985;50.814;8.530;2023-08-08T08:13:24;14.60;99.90
30174;DHT22;16985;50.814;8.530;2023-08-08T08:15:50;14.60;99.90
30174;DHT22;16985;50.814;8.530;2023-08-08T08:18:16;14.70;99.90
30174;DHT22;16985;50.814;8.530;2023-08-08T08:20:43;14.70;99.90
30174;DHT22;16985;50.814;8.530;2023-08-08T08:23:09;14.70;99.90
30174;DHT22;16985;50.814;8.530;2023-08-08T08:25:35;14.70;99.90
30174;DHT22;16985;50.814;8.530;2023-08-08T08:28:01;14.90;99.90
30174;DHT22;16985;50.814;8.530;2023-08-08T08:30:27;14.90;99.90
30174;DHT22;16985;50.814;8.530;2023-08-08T08:32:53;15.00;99.90
30174;DHT22;16985;50.814;8.530;2023-08-08T08:35:19;15.10;99.90
30174;DHT22;16985;50.814;8.530;2023-08-08T08:37:46;15.20;99.90
30174;DHT22;16985;50.814;8.530;2023-08-08T08:40:11;15.30;99.90
30174;DHT22;16985;50.814;8.530;2023-08-08T08:42:39;15.30;99.90
30174;DHT22;16985;50.814;8.530;2023-08-08T08:45:06;15.40;99.90
30174;DHT22;16985;50.814;8.530;2023-08-08T08:47:33;15.50;99.90
30174;DHT22;16985;50.814;8.530;2023-08-08T08:50:00;15.60;99.90
30174;DHT22;16985;50.814;8.530;2023-08-08T08:52:27;15.70;99.90
30174;DHT22;16985;50.814;8.530;2023-08-08T08:54:53;15.70;99.90
30174;DHT22;16985;50.814;8.530;2023-08-08T08:57:21;15.80;99.90
30174;DHT22;16985;50.814;8.530;2023-08-08T08:59:49;15.90;99.90
30174;DHT22;16985;50.814;8.530;2023-08-08T09:02:17;15.90;99.90
30174;DHT22;16985;50.814;8.530;2023-08-08T09:04:45;16.00;99.90
30174;DHT22;16985;50.814;8.530;2023-08-08T09:07:11;16.10;99.90
30174;DHT22;16985;50.814;8.530;2023-08-08T09:09:38;16.30;99.90
30174;DHT22;16985;50.814;8.530;2023-08-08T09:12:04;16.40;99.90
30174;DHT22;16985;50.814;8.530;2023-08-08T09:14:31;16.50;99.90
30174;DHT22;16985;50.814;8.530;2023-08-08T09:16:57;16.60;99.90
30174;DHT22;16985;50.814;8.530;2023-08-08T09:19:23;16.60;99.90
30174;DHT22;16985;50.814;8.530;2023-08-08T09:21:51;16.70;99.90
30174;DHT22;16985;50.814;8.530;2023-08-08T09:24:17;16.80;99.90
30174;DHT22;16985;50.814;8.530;2023-08-08T09:26:44;16.90;99.90
30174;DHT22;16985;50.814;8.530;2023-08-08T09:29:12;17.00;98.90
30174;DHT22;16985;50.814;8.530;2023-08-08T09:31:39;16.90;97.60
30174;DHT22;16985;50.814;8.530;2023-08-08T09:34:05;17.00;97.00
30174;DHT22;16985;50.814;8.530;2023-08-08T09:36:32;17.10;95.90
30174;DHT22;16985;50.814;8.530;2023-08-08T09:38:59;17.10;95.50
30174;DHT22;16985;50.814;8.530;2023-08-08T09:41:25;17.20;94.20
30174;DHT22;16985;50.814;8.530;2023-08-08T09:43:52;17.30;92.50
30174;DHT22;16985;50.814;8.530;2023-08-08T09:46:19;17.30;92.40
30174;DHT22;16985;50.814;8.530;2023-08-08T09:48:46;17.40;92.10
30174;DHT22;16985;50.814;8.530;2023-08-08T09:51:12;17.40;92.20
30174;DHT22;16985;50.814;8.530;2023-08-08T09:53:39;17.40;91.70
30174;DHT22;16985;50.814;8.530;2023-08-08T09:56:07;17.40;91.90
30174;DHT22;16985;50.814;8.530;2023-08-08T09:58:33;17.40;91.70
30174;DHT22;16985;50.814;8.530;2023-08-08T10:00:59;17.50;91.70
30174;DHT22;16985;50.814;8.530;2023-08-08T10:03:26;17.50;91.60
30174;DHT22;16985;50.814;8.530;2023-08-08T10:05:52;17.60;91.60
30174;DHT22;16985;50.814;8.530;2023-08-08T10:08:18;17.60;91.20
30174;DHT22;16985;50.814;8.530;2023-08-08T10:10:47;17.60;90.50
30174;DHT22;16985;50.814;8.530;2023-08-08T10:13:21;17.60;90.30
30174;DHT22;16985;50.814;8.530;2023-08-08T10:15:50;17.70;90.50
30174;DHT22;16985;50.814;8.530;2023-08-08T10:18:17;17.70;90.40
30174;DHT22;16985;50.814;8.530;2023-08-08T10:20:47;17.70;90.20
30174;DHT22;16985;50.814;8.530;2023-08-08T10:23:17;17.70;89.70
30174;DHT22;16985;50.814;8.530;2023-08-08T10:25:48;17.70;89.40
30174;DHT22;16985;50.814;8.530;2023-08-08T10:28:18;17.60;88.50
30174;DHT22;16985;50.814;8.530;2023-08-08T10:30:46;17.60;88.30
30174;DHT22;16985;50.814;8.530;2023-08-08T10:33:42;17.50;88.80
30174;DHT22;16985;50.814;8.530;2023-08-08T10:36:10;17.50;87.90
30174;DHT22;16985;50.814;8.530;2023-08-08T10:38:46;17.40;87.40
30174;DHT22;16985;50.814;8.530;2023-08-08T10:41:20;17.30;88.00
30174;DHT22;16985;50.814;8.530;2023-08-08T10:43:54;17.30;88.00
30174;DHT22;16985;50.814;8.530;2023-08-08T10:46:28;17.20;88.40
30174;DHT22;16985;50.814;8.530;2023-08-08T10:49:02;17.10;88.20
30174;DHT22;16985;50.814;8.530;2023-08-08T10:51:41;17.00;88.70
30174;DHT22;16985;50.814;8.530;2023-08-08T10:56:40;16.90;89.20
30174;DHT22;16985;50.814;8.530;2023-08-08T10:59:36;17.00;89.90
30174;DHT22;16985;50.814;8.530;2023-08-08T11:02:03;16.90;90.40
30174;DHT22;16985;50.814;8.530;2023-08-08T11:04:29;16.90;90.80
30174;DHT22;16985;50.814;8.530;2023-08-08T11:06:57;16.80;91.20
30174;DHT22;16985;50.814;8.530;2023-08-08T11:09:24;16.80;91.40
30174;DHT22;16985;50.814;8.530;2023-08-08T11:11:52;16.80;91.70
30174;DHT22;16985;50.814;8.530;2023-08-08T11:14:22;16.80;91.70
30174;DHT22;16985;50.814;8.530;2023-08-08T11:16:50;16.80;91.70
30174;DHT22;16985;50.814;8.530;2023-08-08T11:19:17;16.80;91.80
30174;DHT22;16985;50.814;8.530;2023-08-08T11:21:48;16.80;91.70
30174;DHT22;16985;50.814;8.530;2023-08-08T11:24:15;16.90;91.70
30174;DHT22;16985;50.814;8.530;2023-08-08T11:26:42;16.90;92.00
30174;DHT22;16985;50.814;8.530;2023-08-08T11:29:10;16.90;91.60
30174;DHT22;16985;50.814;8.530;2023-08-08T11:31:37;16.90;91.40
30174;DHT22;16985;50.814;8.530;2023-08-08T11:34:04;16.90;91.20
30174;DHT22;16985;50.814;8.530;2023-08-08T11:36:34;17.00;91.30
30174;DHT22;16985;50.814;8.530;2023-08-08T11:39:05;17.00;91.20
30174;DHT22;16985;50.814;8.530;2023-08-08T11:41:34;17.00;90.90
30174;DHT22;16985;50.814;8.530;2023-08-08T11:44:01;17.00;91.30
30174;DHT22;16985;50.814;8.530;2023-08-08T11:46:30;16.90;91.10
30174;DHT22;16985;50.814;8.530;2023-08-08T11:49:03;16.90;91.30
30174;DHT22;16985;50.814;8.530;2023-08-08T11:51:29;16.90;91.50
30174;DHT22;16985;50.814;8.530;2023-08-08T11:53:55;16.90;91.50
30174;DHT22;16985;50.814;8.530;2023-08-08T11:56:21;16.90;91.40
30174;DHT22;16985;50.814;8.530;2023-08-08T11:58:50;16.80;91.10
30174;DHT22;16985;50.814;8.530;2023-08-08T12:01:22;16.80;91.10
30174;DHT22;16985;50.814;8.530;2023-08-08T12:03:50;16.90;91.40
30174;DHT22;16985;50.814;8.530;2023-08-08T12:06:17;16.90;91.80
30174;DHT22;16985;50.814;8.530;2023-08-08T12:08:44;17.00;92.10
30174;DHT22;16985;50.814;8.530;2023-08-08T12:11:11;17.10;91.60
30174;DHT22;16985;50.814;8.530;2023-08-08T12:13:38;17.20;91.40
30174;DHT22;16985;50.814;8.530;2023-08-08T12:16:10;17.40;90.70
30174;DHT22;16985;50.814;8.530;2023-08-08T12:18:37;17.40;90.20
30174;DHT22;16985;50.814;8.530;2023-08-08T12:21:07;17.50;89.50
30174;DHT22;16985;50.814;8.530;2023-08-08T12:23:36;17.50;89.40
30174;DHT22;16985;50.814;8.530;2023-08-08T12:26:06;17.50;89.20
30174;DHT22;16985;50.814;8.530;2023-08-08T12:28:33;17.60;87.30
30174;DHT22;16985;50.814;8.530;2023-08-08T12:30:59;17.60;87.20
30174;DHT22;16985;50.814;8.530;2023-08-08T12:33:25;17.60;87.00
30174;DHT22;16985;50.814;8.530;2023-08-08T12:35:51;17.60;86.70
30174;DHT22;16985;50.814;8.530;2023-08-08T12:38:17;17.60;86.40
30174;DHT22;16985;50.814;8.530;2023-08-08T12:40:43;17.60;86.20
30174;DHT22;16985;50.814;8.530;2023-08-08T12:43:09;17.60;85.60
30174;DHT22;16985;50.814;8.530;2023-08-08T12:45:39;17.60;85.70
30174;DHT22;16985;50.814;8.530;2023-08-08T12:48:05;17.50;85.80
30174;DHT22;16985;50.814;8.530;2023-08-08T12:50:32;17.50;86.40
30174;DHT22;16985;50.814;8.530;2023-08-08T12:52:58;17.50;86.50
30174;DHT22;16985;50.814;8.530;2023-08-08T12:55:23;17.50;86.50
30174;DHT22;16985;50.814;8.530;2023-08-08T12:57:49;17.60;87.00
30174;DHT22;16985;50.814;8.530;2023-08-08T13:00:15;17.70;87.40
30174;DHT22;16985;50.814;8.530;2023-08-08T13:02:42;17.70;87.80
30174;DHT22;16985;50.814;8.530;2023-08-08T13:05:08;17.80;88.00
30174;DHT22;16985;50.814;8.530;2023-08-08T13:07:35;17.80;87.10
30174;DHT22;16985;50.814;8.530;2023-08-08T13:10:01;17.90;86.40
30174;DHT22;16985;50.814;8.530;2023-08-08T13:12:27;17.90;85.00
30174;DHT22;16985;50.814;8.530;2023-08-08T13:14:52;18.00;84.40
30174;DHT22;16985;50.814;8.530;2023-08-08T13:17:18;18.00;84.50
30174;DHT22;16985;50.814;8.530;2023-08-08T13:19:45;18.00;84.30
30174;DHT22;16985;50.814;8.530;2023-08-08T13:22:11;18.00;82.80
30174;DHT22;16985;50.814;8.530;2023-08-08T13:24:38;18.00;83.20
30174;DHT22;16985;50.814;8.530;2023-08-08T13:27:04;18.10;83.10
30174;DHT22;16985;50.814;8.530;2023-08-08T13:29:31;18.10;83.00
30174;DHT22;16985;50.814;8.530;2023-08-08T13:31:56;18.10;83.10
30174;DHT22;16985;50.814;8.530;2023-08-08T13:34:22;18.10;83.20
30174;DHT22;16985;50.814;8.530;2023-08-08T13:36:48;18.00;82.10
30174;DHT22;16985;50.814;8.530;2023-08-08T13:39:14;18.00;82.40
30174;DHT22;16985;50.814;8.530;2023-08-08T13:41:40;17.90;82.60
30174;DHT22;16985;50.814;8.530;2023-08-08T13:44:06;17.90;82.90
30174;DHT22;16985;50.814;8.530;2023-08-08T13:46:32;17.90;83.50
30174;DHT22;16985;50.814;8.530;2023-08-08T13:48:58;17.80;83.80
30174;DHT22;16985;50.814;8.530;2023-08-08T13:51:24;17.80;83.40
30174;DHT22;16985;50.814;8.530;2023-08-08T13:53:50;17.70;83.40
30174;DHT22;16985;50.814;8.530;2023-08-08T13:56:16;17.70;83.80
30174;DHT22;16985;50.814;8.530;2023-08-08T13:58:42;17.60;84.00
30174;DHT22;16985;50.814;8.530;2023-08-08T14:01:08;17.60;84.40
30174;DHT22;16985;50.814;8.530;2023-08-08T14:03:34;17.50;84.90
30174;DHT22;16985;50.814;8.530;2023-08-08T14:06:00;17.50;84.70
30174;DHT22;16985;50.814;8.530;2023-08-08T14:08:26;17.50;85.20
30174;DHT22;16985;50.814;8.530;2023-08-08T14:10:51;17.40;85.50
30174;DHT22;16985;50.814;8.530;2023-08-08T14:13:17;17.40;85.90
30174;DHT22;16985;50.814;8.530;2023-08-08T14:15:45;17.30;86.50
30174;DHT22;16985;50.814;8.530;2023-08-08T14:18:11;17.30;86.50
30174;DHT22;16985;50.814;8.530;2023-08-08T14:20:37;17.10;86.40
30174;DHT22;16985;50.814;8.530;2023-08-08T14:23:03;17.20;87.30
30174;DHT22;16985;50.814;8.530;2023-08-08T14:25:29;17.20;87.00
30174;DHT22;16985;50.814;8.530;2023-08-08T14:27:55;17.10;87.70
30174;DHT22;16985;50.814;8.530;2023-08-08T14:30:22;17.10;88.20
30174;DHT22;16985;50.814;8.530;2023-08-08T14:32:51;17.10;88.50
30174;DHT22;16985;50.814;8.530;2023-08-08T14:35:17;17.00;88.70
30174;DHT22;16985;50.814;8.530;2023-08-08T14:37:43;17.00;89.20
30174;DHT22;16985;50.814;8.530;2023-08-08T14:40:09;17.00;88.90
30174;DHT22;16985;50.814;8.530;2023-08-08T14:42:35;17.00;88.80
30174;DHT22;16985;50.814;8.530;2023-08-08T14:45:01;17.00;89.10
30174;DHT22;16985;50.814;8.530;2023-08-08T14:47:27;16.90;89.10
30174;DHT22;16985;50.814;8.530;2023-08-08T14:49:53;16.90;89.00
30174;DHT22;16985;50.814;8.530;2023-08-08T14:52:18;16.90;89.10
30174;DHT22;16985;50.814;8.530;2023-08-08T14:54:44;16.90;89.20
30174;DHT22;16985;50.814;8.530;2023-08-08T14:57:10;16.90;89.60
30174;DHT22;16985;50.814;8.530;2023-08-08T14:59:36;16.90;89.70
30174;DHT22;16985;50.814;8.530;2023-08-08T15:02:02;16.80;90.00
30174;DHT22;16985;50.814;8.530;2023-08-08T15:04:28;17.00;90.40
30174;DHT22;16985;50.814;8.530;2023-08-08T15:06:54;16.90;90.40
30174;DHT22;16985;50.814;8.530;2023-08-08T15:09:19;17.00;90.60
30174;DHT22;16985;50.814;8.530;2023-08-08T15:11:45;17.10;90.70
30174;DHT22;16985;50.814;8.530;2023-08-08T15:14:11;17.10;90.80
30174;DHT22;16985;50.814;8.530;2023-08-08T15:16:37;17.10;90.90
30174;DHT22;16985;50.814;8.530;2023-08-08T15:19:03;17.20;91.10
30174;DHT22;16985;50.814;8.530;2023-08-08T15:21:29;17.20;90.50
30174;DHT22;16985;50.814;8.530;2023-08-08T15:23:55;17.20;90.20
30174;DHT22;16985;50.814;8.530;2023-08-08T15:26:20;17.30;90.00
30174;DHT22;16985;50.814;8.530;2023-08-08T15:28:48;17.30;89.70
30174;DHT22;16985;50.814;8.530;2023-08-08T15:31:14;17.30;89.80